Time;durP1;ratioP1;P1;durP2;ratioP2;P2;SDS_P1;SDS_P2;PMS_P1;PMS_P2;Temp;Humidity;BMP_temperature;BMP_pressure;BME280_temperature;BME280_humidity;BME280_pressure;Samples;Min_cycle;Max_cycle;Signal;HPM_P1;HPM_P2
2023/07/14 00:00:27;;;;;;;7.35;6.63;;;;;;;;;;5034090;28;20099;-59
2023/07/14 00:02:53;;;;;;;7.95;7.15;;;;;;;;;;5033906;28;20033;-59
2023/07/14 00:05:26;;;;;;;8.07;6.93;;;;;;;;;;5033987;28;20025;-59
2023/07/14 00:07:52;;;;;;;8.57;7.05;;;;;;;;;;5034241;28;20353;-59
2023/07/14 00:10:22;;;;;;;8.57;7.22;;;;;;;;;;5033945;28;20176;-59
2023/07/14 00:12:48;;;;;;;10.18;6.57;;;;;;;;;;5034224;28;20087;-59
2023/07/14 00:15:15;;;;;;;5.18;4.72;;;;;;;;;;5033571;28;20495;-59
2023/07/14 00:17:41;;;;;;;4.38;4.03;;;;;;;;;;5033907;28;20124;-59
2023/07/14 00:20:19;;;;;;;6.68;4.68;;;;;;;;;;5034023;28;20067;-59
2023/07/14 00:22:44;;;;;;;5.68;5.28;;;;;;;;;;5032304;28;20435;-59
2023/07/14 00:25:13;;;;;;;4.72;4.35;;;;;;;;;;5033194;28;20049;-59
2023/07/14 00:27:39;;;;;;;5.80;5.20;;;;;;;;;;5033343;28;20033;-59
2023/07/14 00:30:14;;;;;;;6.30;5.65;;;;;;;;;;5032546;28;20030;-59
2023/07/14 00:32:40;;;;;;;6.10;5.50;;;;;;;;;;5032231;28;20025;-58
2023/07/14 00:35:16;;;;;;;6.82;6.10;;;;;;;;;;5032559;28;20112;-58
2023/07/14 00:37:42;;;;;;;8.65;7.13;;;;;;;;;;5033665;28;20034;-58
2023/07/14 00:40:08;;;;;;;5.70;5.30;;;;;;;;;;5032799;28;20029;-58
2023/07/14 00:42:34;;;;;;;6.75;6.05;;;;;;;;;;5032238;28;20483;-58
2023/07/14 00:44:59;;;;;;;6.25;5.68;;;;;;;;;;5032559;28;20030;-58
2023/07/14 00:47:26;;;;;;;4.80;4.47;;;;;;;;;;5033685;28;20056;-59
2023/07/14 00:49:52;;;;;;;4.47;4.18;;;;;;;;;;5033567;28;20028;-59
2023/07/14 00:52:22;;;;;;;4.47;4.18;;;;;;;;;;5031939;28;20124;-59
2023/07/14 00:54:49;;;;;;;4.32;4.03;;;;;;;;;;5033566;28;20018;-59
2023/07/14 00:57:16;;;;;;;4.75;4.40;;;;;;;;;;5032100;28;20075;-58
2023/07/14 00:59:41;;;;;;;4.35;3.95;;;;;;;;;;5035641;28;20362;-59
2023/07/14 01:02:15;;;;;;;4.40;4.03;;;;;;;;;;5035553;28;20026;-64
2023/07/14 01:04:43;;;;;;;3.45;3.25;;;;;;;;;;5037246;28;20040;-64
2023/07/14 01:07:09;;;;;;;4.00;3.70;;;;;;;;;;5035994;28;20103;-64
2023/07/14 01:09:35;;;;;;;4.75;4.35;;;;;;;;;;5036077;28;20123;-64
2023/07/14 01:12:01;;;;;;;5.43;4.90;;;;;;;;;;5036967;28;20499;-64
2023/07/14 01:14:29;;;;;;;4.30;3.72;;;;;;;;;;5036918;28;20461;-64
2023/07/14 01:16:55;;;;;;;4.40;4.00;;;;;;;;;;5035657;28;20025;-65
2023/07/14 01:19:31;;;;;;;4.90;4.22;;;;;;;;;;5035259;28;20034;-64
2023/07/14 01:22:01;;;;;;;3.42;3.22;;;;;;;;;;5036616;28;20037;-64
2023/07/14 01:24:31;;;;;;;5.63;4.38;;;;;;;;;;5035554;28;20032;-64
2023/07/14 01:27:04;;;;;;;4.43;4.13;;;;;;;;;;5035205;28;20033;-64
2023/07/14 01:29:31;;;;;;;6.13;4.20;;;;;;;;;;5035305;28;20021;-64
2023/07/14 01:31:57;;;;;;;5.03;4.60;;;;;;;;;;5036324;28;20029;-64
2023/07/14 01:34:23;;;;;;;5.38;4.88;;;;;;;;;;5035585;28;20017;-64
2023/07/14 01:36:49;;;;;;;6.85;4.70;;;;;;;;;;5036750;28;20464;-67
2023/07/14 01:39:15;;;;;;;4.97;4.45;;;;;;;;;;5036529;28;20036;-67
2023/07/14 01:41:41;;;;;;;5.78;5.03;;;;;;;;;;5035488;28;20531;-68
2023/07/14 01:44:07;;;;;;;6.80;5.15;;;;;;;;;;5036762;28;20083;-68
2023/07/14 01:46:35;;;;;;;5.10;4.60;;;;;;;;;;5036231;28;20132;-68
2023/07/14 01:49:08;;;;;;;5.72;4.38;;;;;;;;;;5036062;28;20112;-69
2023/07/14 01:51:39;;;;;;;4.70;4.28;;;;;;;;;;5051261;28;20530;-69
2023/07/14 01:54:09;;;;;;;4.47;3.70;;;;;;;;;;5034733;28;20076;-69
2023/07/14 01:56:35;;;;;;;7.38;4.78;;;;;;;;;;5036251;28;20029;-69
2023/07/14 01:59:10;;;;;;;5.30;4.80;;;;;;;;;;5035055;28;20034;-66
2023/07/14 02:01:38;;;;;;;4.93;4.53;;;;;;;;;;5034960;28;20380;-64
2023/07/14 02:04:06;;;;;;;4.90;4.50;;;;;;;;;;5034883;28;20096;-64
2023/07/14 02:06:32;;;;;;;4.28;3.97;;;;;;;;;;5036128;28;20120;-65
2023/07/14 02:08:58;;;;;;;4.20;3.90;;;;;;;;;;5034733;28;20049;-66
2023/07/14 02:11:24;;;;;;;5.07;4.68;;;;;;;;;;5034366;28;20461;-69
2023/07/14 02:13:54;;;;;;;3.85;3.65;;;;;;;;;;5034489;28;20029;-69
2023/07/14 02:16:20;;;;;;;4.05;3.83;;;;;;;;;;5034203;28;20040;-68
2023/07/14 02:18:46;;;;;;;4.50;4.10;;;;;;;;;;5034169;28;20136;-68
2023/07/14 02:21:14;;;;;;;5.38;3.53;;;;;;;;;;5050837;28;20404;-69
2023/07/14 02:23:40;;;;;;;5.95;3.85;;;;;;;;;;5034324;28;20029;-69
2023/07/14 02:26:20;;;;;;;3.95;3.55;;;;;;;;;;5034866;28;20050;-69
2023/07/14 02:28:46;;;;;;;3.72;3.42;;;;;;;;;;5035520;28;20437;-69
2023/07/14 02:31:18;;;;;;;5.03;3.85;;;;;;;;;;5035429;28;20061;-68
2023/07/14 02:33:46;;;;;;;3.88;3.58;;;;;;;;;;5033856;28;20492;-68
2023/07/14 02:36:22;;;;;;;4.70;4.30;;;;;;;;;;5033826;28;20053;-67
2023/07/14 02:38:47;;;;;;;4.32;3.72;;;;;;;;;;5035745;28;20030;-68
2023/07/14 02:41:28;;;;;;;4.20;3.90;;;;;;;;;;5034328;28;20034;-68
2023/07/14 02:43:53;;;;;;;;;;;;;;;;;;5034836;28;20041;-68
2023/07/14 02:46:23;;;;;;;4.97;4.57;;;;;;;;;;5035281;28;19963;-68
2023/07/14 02:48:50;;;;;;;4.63;4.30;;;;;;;;;;5035353;28;20021;-68
2023/07/14 02:51:16;;;;;;;4.70;4.30;;;;;;;;;;5035221;28;20026;-67
2023/07/14 02:53:41;;;;;;;4.85;4.45;;;;;;;;;;5033938;28;20530;-67
2023/07/14 02:56:07;;;;;;;6.90;4.18;;;;;;;;;;5033970;28;20026;-67
2023/07/14 02:58:33;;;;;;;5.15;4.63;;;;;;;;;;5033509;28;20037;-67
2023/07/14 03:00:59;;;;;;;4.97;4.57;;;;;;;;;;5030889;28;20025;-67
2023/07/14 03:03:24;;;;;;;5.03;4.63;;;;;;;;;;5024853;28;20388;-67
2023/07/14 03:05:51;;;;;;;4.78;4.38;;;;;;;;;;5024827;28;20032;-67
2023/07/14 03:08:17;;;;;;;4.38;4.07;;;;;;;;;;5024737;28;20072;-67
2023/07/14 03:10:47;;;;;;;5.15;4.68;;;;;;;;;;5024697;28;20374;-69
2023/07/14 03:13:13;;;;;;;4.95;4.53;;;;;;;;;;5024825;28;20106;-69
2023/07/14 03:15:38;;;;;;;4.72;4.30;;;;;;;;;;5024589;28;20022;-70
2023/07/14 03:18:04;;;;;;;4.78;4.38;;;;;;;;;;5033851;28;20529;-60
2023/07/14 03:20:30;;;;;;;4.63;4.22;;;;;;;;;;5033721;28;20060;-69
2023/07/14 03:22:55;;;;;;;4.63;4.22;;;;;;;;;;5033056;28;20033;-69
2023/07/14 03:25:21;;;;;;;4.18;3.88;;;;;;;;;;5033648;28;20049;-68
2023/07/14 03:27:46;;;;;;;5.30;4.90;;;;;;;;;;5033834;28;20477;-60
2023/07/14 03:30:13;;;;;;;4.82;4.43;;;;;;;;;;5031298;28;20017;-60
2023/07/14 03:32:38;;;;;;;5.60;4.47;;;;;;;;;;5027343;28;20026;-59
2023/07/14 03:35:04;;;;;;;5.35;4.95;;;;;;;;;;5033663;28;20445;-60
2023/07/14 03:37:30;;;;;;;4.95;4.55;;;;;;;;;;5024205;28;20423;-59
2023/07/14 03:39:55;;;;;;;3.70;3.50;;;;;;;;;;5033598;28;20444;-59
2023/07/14 03:42:20;;;;;;;5.10;4.70;;;;;;;;;;5024278;28;20029;-67
2023/07/14 03:44:46;;;;;;;4.88;4.47;;;;;;;;;;5024435;28;21249;-67
2023/07/14 03:47:11;;;;;;;4.68;4.28;;;;;;;;;;5033516;28;20022;-59
2023/07/14 03:49:36;;;;;;;4.25;3.95;;;;;;;;;;5033329;28;20448;-59
2023/07/14 03:52:02;;;;;;;5.05;4.65;;;;;;;;;;5033247;28;20026;-59
2023/07/14 03:54:28;;;;;;;5.80;5.20;;;;;;;;;;5033380;28;20099;-59
2023/07/14 03:56:53;;;;;;;5.15;4.72;;;;;;;;;;5033370;28;20508;-59
2023/07/14 03:59:19;;;;;;;5.47;4.97;;;;;;;;;;5033427;28;20392;-60
2023/07/14 04:01:44;;;;;;;5.07;4.68;;;;;;;;;;5033337;28;20056;-60
2023/07/14 04:04:10;;;;;;;5.07;4.78;;;;;;;;;;5023778;28;20046;-64
2023/07/14 04:06:35;;;;;;;5.78;5.22;;;;;;;;;;5023641;28;20041;-60
2023/07/14 04:09:01;;;;;;;5.43;4.95;;;;;;;;;;5007031;28;20435;-67
2023/07/14 04:11:29;;;;;;;6.93;6.22;;;;;;;;;;5033269;28;20052;-60
2023/07/14 04:13:54;;;;;;;7.00;6.43;;;;;;;;;;5029024;28;20049;-69
2023/07/14 04:16:23;;;;;;;5.90;5.43;;;;;;;;;;5032453;28;20057;-60
2023/07/14 04:18:49;;;;;;;6.90;6.30;;;;;;;;;;5039574;28;20041;-60
2023/07/14 04:21:14;;;;;;;6.68;5.88;;;;;;;;;;5052668;28;20028;-60
2023/07/14 04:23:40;;;;;;;6.32;5.65;;;;;;;;;;5053343;28;20055;-71
2023/07/14 04:26:11;;;;;;;5.38;4.97;;;;;;;;;;5024956;28;20392;-61
2023/07/14 04:28:37;;;;;;;4.60;4.28;;;;;;;;;;5032933;28;20120;-71
2023/07/14 04:31:02;;;;;;;5.65;5.15;;;;;;;;;;5032366;28;20105;-71
2023/07/14 04:33:28;;;;;;;5.63;5.10;;;;;;;;;;5034365;28;20026;-71
2023/07/14 04:35:54;;;;;;;5.88;5.28;;;;;;;;;;5035766;28;20033;-71
2023/07/14 04:38:20;;;;;;;5.88;5.38;;;;;;;;;;5037614;28;20536;-72
2023/07/14 04:40:46;;;;;;;5.90;5.30;;;;;;;;;;5037067;28;20031;-71
2023/07/14 04:43:11;;;;;;;5.68;5.20;;;;;;;;;;5035974;28;20037;-71
2023/07/14 04:45:37;;;;;;;8.27;5.68;;;;;;;;;;5037308;28;20108;-72
2023/07/14 04:48:03;;;;;;;6.60;5.68;;;;;;;;;;5036196;28;20100;-71
2023/07/14 04:50:29;;;;;;;9.50;6.88;;;;;;;;;;5036231;28;20022;-71
2023/07/14 04:52:56;;;;;;;8.82;6.40;;;;;;;;;;5037209;28;20453;-71
2023/07/14 04:55:22;;;;;;;8.80;6.90;;;;;;;;;;5036791;28;20046;-72
2023/07/14 04:57:48;;;;;;;7.40;6.47;;;;;;;;;;5036683;28;20057;-72
2023/07/14 05:00:14;;;;;;;7.63;6.72;;;;;;;;;;5037521;28;20057;-71
2023/07/14 05:02:39;;;;;;;8.55;6.72;;;;;;;;;;5035641;28;20066;-72
2023/07/14 05:05:09;;;;;;;7.65;6.78;;;;;;;;;;5036459;28;20477;-68
2023/07/14 05:07:35;;;;;;;8.80;7.63;;;;;;;;;;5036274;28;20030;-73
2023/07/14 05:10:00;;;;;;;9.65;7.85;;;;;;;;;;5036362;28;20103;-71
2023/07/14 05:12:25;;;;;;;10.60;8.73;;;;;;;;;;5018363;28;20028;-73
2023/07/14 05:14:50;;;;;;;10.93;8.65;;;;;;;;;;5036481;28;20032;-73
2023/07/14 05:17:16;;;;;;;13.13;9.27;;;;;;;;;;5036379;28;20408;-62
2023/07/14 05:19:42;;;;;;;13.57;8.80;;;;;;;;;;5036115;28;20434;-62
2023/07/14 05:22:07;;;;;;;12.45;9.73;;;;;;;;;;5034975;28;20104;-62
2023/07/14 05:24:32;;;;;;;11.90;10.68;;;;;;;;;;5035797;28;20030;-63
2023/07/14 05:26:59;;;;;;;11.65;10.40;;;;;;;;;;5036023;28;20068;-63
2023/07/14 05:29:25;;;;;;;12.00;10.30;;;;;;;;;;5035995;28;20075;-63
2023/07/14 05:31:50;;;;;;;15.38;10.73;;;;;;;;;;5035610;28;20490;-63
2023/07/14 05:34:16;;;;;;;12.48;10.85;;;;;;;;;;5035394;28;20028;-59
2023/07/14 05:36:41;;;;;;;14.25;11.90;;;;;;;;;;5035852;28;20036;-58
2023/07/14 05:39:06;;;;;;;15.85;12.27;;;;;;;;;;5035876;28;20530;-58
2023/07/14 05:41:32;;;;;;;15.50;12.15;;;;;;;;;;5033708;28;20033;-59
2023/07/14 05:43:57;;;;;;;15.15;12.30;;;;;;;;;;5035769;28;20041;-59
2023/07/14 05:46:23;;;;;;;15.77;12.10;;;;;;;;;;5034211;28;20141;-59
2023/07/14 05:48:48;;;;;;;17.30;11.85;;;;;;;;;;5035597;28;20037;-59
2023/07/14 05:51:13;;;;;;;14.15;12.63;;;;;;;;;;5034262;28;20018;-59
2023/07/14 05:53:39;;;;;;;13.73;12.07;;;;;;;;;;5035319;28;20440;-59
2023/07/14 05:56:04;;;;;;;18.58;14.25;;;;;;;;;;5035217;28;20102;-59
2023/07/14 05:58:29;;;;;;;18.08;13.93;;;;;;;;;;5034662;28;20037;-59
2023/07/14 06:00:55;;;;;;;17.75;14.27;;;;;;;;;;5034245;28;20029;-59
2023/07/14 06:03:20;;;;;;;19.33;14.75;;;;;;;;;;5033556;28;20035;-59
2023/07/14 06:05:49;;;;;;;23.27;15.02;;;;;;;;;;5034586;28;20124;-59
2023/07/14 06:08:14;;;;;;;19.70;15.25;;;;;;;;;;5032612;28;20388;-59
2023/07/14 06:10:40;;;;;;;21.33;15.00;;;;;;;;;;5033730;28;20026;-59
2023/07/14 06:13:05;;;;;;;19.52;15.68;;;;;;;;;;5033841;28;20021;-59
2023/07/14 06:15:30;;;;;;;19.45;14.48;;;;;;;;;;5033551;28;20488;-59
2023/07/14 06:17:55;;;;;;;21.33;15.25;;;;;;;;;;5033419;28;20029;-59
2023/07/14 06:20:21;;;;;;;20.20;15.15;;;;;;;;;;5033412;28;20025;-59
2023/07/14 06:22:48;;;;;;;19.52;15.85;;;;;;;;;;5033342;28;20370;-59
2023/07/14 06:25:13;;;;;;;21.02;16.48;;;;;;;;;;5032897;28;20500;-59
2023/07/14 06:27:39;;;;;;;17.23;14.65;;;;;;;;;;5033471;28;20021;-58
2023/07/14 06:30:04;;;;;;;17.88;15.18;;;;;;;;;;5034062;28;20519;-58
2023/07/14 06:32:30;;;;;;;17.02;13.57;;;;;;;;;;5017388;28;20022;-58
2023/07/14 06:34:56;;;;;;;14.63;12.00;;;;;;;;;;5035065;28;20072;-58
2023/07/14 06:37:24;;;;;;;12.70;10.55;;;;;;;;;;5035056;28;20443;-59
2023/07/14 06:39:49;;;;;;;12.05;10.75;;;;;;;;;;5035281;28;20465;-59
2023/07/14 06:42:14;;;;;;;15.02;10.80;;;;;;;;;;5034946;28;20029;-58
2023/07/14 06:44:41;;;;;;;14.05;10.95;;;;;;;;;;5033886;28;20075;-58
2023/07/14 06:47:06;;;;;;;13.52;10.85;;;;;;;;;;5035122;28;20041;-59
2023/07/14 06:49:31;;;;;;;10.70;9.52;;;;;;;;;;5035369;28;20096;-58
2023/07/14 06:51:57;;;;;;;11.95;9.98;;;;;;;;;;5035032;28;20024;-59
2023/07/14 06:54:22;;;;;;;12.60;9.27;;;;;;;;;;5035010;28;20056;-59
2023/07/14 06:56:47;;;;;;;13.13;8.98;;;;;;;;;;5034574;28;20456;-59
2023/07/14 06:59:13;;;;;;;9.85;8.20;;;;;;;;;;5034889;28;20033;-58
2023/07/14 07:01:38;;;;;;;11.20;8.07;;;;;;;;;;5034641;28;20493;-58
2023/07/14 07:04:04;;;;;;;9.05;7.55;;;;;;;;;;5034846;28;20025;-58
2023/07/14 07:06:29;;;;;;;8.95;7.45;;;;;;;;;;5034470;28;20037;-58
2023/07/14 07:08:54;;;;;;;10.93;7.90;;;;;;;;;;5034733;28;20040;-58
2023/07/14 07:11:20;;;;;;;11.75;8.02;;;;;;;;;;5033125;28;20092;-58
2023/07/14 07:13:45;;;;;;;7.63;6.05;;;;;;;;;;5016940;28;20029;-58
2023/07/14 07:16:10;;;;;;;8.95;6.80;;;;;;;;;;5034391;28;20079;-58
2023/07/14 07:18:36;;;;;;;8.13;6.35;;;;;;;;;;5032978;28;20038;-58
2023/07/14 07:21:02;;;;;;;8.48;6.15;;;;;;;;;;5034487;28;20028;-58
2023/07/14 07:23:27;;;;;;;8.15;6.78;;;;;;;;;;5034189;28;20116;-59
2023/07/14 07:25:54;;;;;;;8.25;5.82;;;;;;;;;;5033924;28;20048;-59
2023/07/14 07:28:20;;;;;;;5.72;5.10;;;;;;;;;;5033261;28;20124;-59
2023/07/14 07:30:45;;;;;;;6.47;5.22;;;;;;;;;;5032914;28;20097;-59
2023/07/14 07:33:11;;;;;;;5.97;4.82;;;;;;;;;;5034082;28;20387;-58
2023/07/14 07:35:37;;;;;;;5.30;4.80;;;;;;;;;;5034877;28;20037;-58
2023/07/14 07:38:02;;;;;;;4.70;4.30;;;;;;;;;;5033963;28;20395;-58
2023/07/14 07:40:28;;;;;;;5.20;4.75;;;;;;;;;;5033986;28;20026;-58
2023/07/14 07:42:54;;;;;;;5.22;4.45;;;;;;;;;;5032750;28;20469;-58
2023/07/14 07:45:19;;;;;;;4.65;4.25;;;;;;;;;;5033482;28;20025;-58
2023/07/14 07:47:45;;;;;;;5.78;4.15;;;;;;;;;;5032903;28;20116;-58
2023/07/14 07:50:10;;;;;;;5.60;4.68;;;;;;;;;;5032579;28;20014;-59
2023/07/14 07:52:36;;;;;;;4.78;3.97;;;;;;;;;;5033767;28;20535;-58
2023/07/14 07:55:01;;;;;;;6.13;4.00;;;;;;;;;;5034094;28;20052;-58
2023/07/14 07:57:26;;;;;;;5.82;3.28;;;;;;;;;;5033672;28;20037;-58
2023/07/14 07:59:52;;;;;;;3.70;2.92;;;;;;;;;;5033985;28;20104;-58
2023/07/14 08:02:17;;;;;;;3.20;2.63;;;;;;;;;;5033956;28;20025;-58
2023/07/14 08:04:42;;;;;;;3.47;2.50;;;;;;;;;;5033647;28;20034;-59
2023/07/14 08:07:12;;;;;;;2.50;2.30;;;;;;;;;;5033866;28;20033;-58
2023/07/14 08:09:37;;;;;;;2.70;2.50;;;;;;;;;;5033308;28;20040;-58
2023/07/14 08:12:03;;;;;;;2.38;2.20;;;;;;;;;;5034127;28;20029;-59
2023/07/14 08:14:29;;;;;;;3.25;2.60;;;;;;;;;;5033859;28;20029;-58
2023/07/14 08:16:54;;;;;;;2.83;2.60;;;;;;;;;;5033505;28;20034;-58
2023/07/14 08:19:21;;;;;;;2.55;2.35;;;;;;;;;;5033464;28;20037;-59
2023/07/14 08:21:46;;;;;;;4.60;2.40;;;;;;;;;;5032243;28;20459;-58
2023/07/14 08:24:12;;;;;;;2.63;2.00;;;;;;;;;;5033422;28;20057;-58
2023/07/14 08:26:37;;;;;;;2.15;2.03;;;;;;;;;;5033201;28;20057;-58
2023/07/14 08:29:03;;;;;;;5.78;2.30;;;;;;;;;;5032140;28;20067;-58
2023/07/14 08:31:29;;;;;;;2.83;2.15;;;;;;;;;;5032518;28;20038;-59
2023/07/14 08:33:54;;;;;;;4.72;2.35;;;;;;;;;;5033322;28;20060;-59
2023/07/14 08:36:19;;;;;;;3.17;2.17;;;;;;;;;;5032124;28;20392;-58
2023/07/14 08:38:45;;;;;;;2.25;1.98;;;;;;;;;;5033322;28;20041;-59
2023/07/14 08:41:26;;;;;;;2.25;1.83;;;;;;;;;;5033530;28;20029;-59
2023/07/14 08:43:59;;;;;;;3.42;1.67;;;;;;;;;;5033579;28;20464;-59
2023/07/14 08:46:24;;;;;;;1.92;1.80;;;;;;;;;;5033165;28;20030;-59
2023/07/14 08:48:57;;;;;;;2.15;1.90;;;;;;;;;;5033795;28;20056;-58
2023/07/14 08:51:30;;;;;;;1.92;1.80;;;;;;;;;;5031928;28;20052;-58
2023/07/14 08:53:59;;;;;;;2.22;2.10;;;;;;;;;;5033461;28;20033;-58
2023/07/14 08:56:25;;;;;;;3.28;1.83;;;;;;;;;;5033456;28;20106;-59
2023/07/14 08:58:52;;;;;;;1.98;1.88;;;;;;;;;;5033203;28;20056;-59
2023/07/14 09:01:18;;;;;;;2.42;1.63;;;;;;;;;;5033091;28;20029;-59
2023/07/14 09:03:46;;;;;;;3.55;1.85;;;;;;;;;;5031820;28;20030;-58
2023/07/14 09:06:17;;;;;;;2.08;1.70;;;;;;;;;;5033003;28;20060;-59
2023/07/14 09:08:43;;;;;;;2.97;1.77;;;;;;;;;;5033569;28;20032;-58
2023/07/14 09:11:12;;;;;;;1.85;1.63;;;;;;;;;;5033062;28;20021;-59
2023/07/14 09:13:48;;;;;;;1.65;1.50;;;;;;;;;;5033402;28;20464;-59
2023/07/14 09:16:15;;;;;;;2.13;2.00;;;;;;;;;;5033239;28;20033;-58
2023/07/14 09:18:40;;;;;;;1.90;1.80;;;;;;;;;;5033003;28;20118;-59
2023/07/14 09:21:13;;;;;;;2.58;1.55;;;;;;;;;;5034479;28;20053;-59
2023/07/14 09:23:45;;;;;;;1.60;1.35;;;;;;;;;;5035426;28;20107;-58
2023/07/14 09:26:10;;;;;;;1.70;1.60;;;;;;;;;;5034153;28;20519;-59
2023/07/14 09:28:41;;;;;;;2.45;1.70;;;;;;;;;;5036650;28;20034;-59
2023/07/14 09:31:06;;;;;;;;;;;;;;;;;;5037085;28;20025;-59
2023/07/14 09:33:37;;;;;;;4.80;1.55;;;;;;;;;;5036282;28;20441;-59
2023/07/14 09:36:07;;;;;;;1.77;1.38;;;;;;;;;;5036243;28;20060;-59
2023/07/14 09:38:40;;;;;;;2.92;1.25;;;;;;;;;;5036192;28;20026;-59
2023/07/14 09:41:11;;;;;;;2.92;1.75;;;;;;;;;;5034987;28;20472;-58
2023/07/14 09:43:36;;;;;;;1.70;1.60;;;;;;;;;;5036108;28;20045;-59
2023/07/14 09:46:02;;;;;;;1.52;1.42;;;;;;;;;;5035987;28;20111;-59
2023/07/14 09:48:31;;;;;;;4.22;1.88;;;;;;;;;;5036251;28;20024;-59
2023/07/14 09:51:00;;;;;;;1.85;1.65;;;;;;;;;;5036295;28;20076;-59
2023/07/14 09:53:29;;;;;;;2.88;1.83;;;;;;;;;;5036166;28;20096;-59
2023/07/14 09:56:03;;;;;;;2.80;1.83;;;;;;;;;;5035891;28;20026;-59
2023/07/14 09:58:29;;;;;;;6.53;2.08;;;;;;;;;;5036418;28;20045;-59
2023/07/14 10:00:56;;;;;;;1.95;1.75;;;;;;;;;;5036345;28;20033;-58
2023/07/14 10:03:28;;;;;;;2.45;1.70;;;;;;;;;;5035750;28;20038;-58
2023/07/14 10:06:02;;;;;;;3.35;1.90;;;;;;;;;;5035900;28;20095;-59
2023/07/14 10:08:33;;;;;;;5.40;1.90;;;;;;;;;;5036201;28;20507;-58
2023/07/14 10:11:18;;;;;;;2.95;1.83;;;;;;;;;;5035613;28;20491;-58
2023/07/14 10:13:46;;;;;;;4.95;2.00;;;;;;;;;;5035555;28;20032;-59
2023/07/14 10:16:16;;;;;;;2.88;1.60;;;;;;;;;;5035503;28;20038;-59
2023/07/14 10:18:49;;;;;;;2.63;1.58;;;;;;;;;;5035504;28;20113;-59
2023/07/14 10:21:16;;;;;;;2.78;1.65;;;;;;;;;;5035710;28;20104;-59
2023/07/14 10:23:55;;;;;;;1.70;1.60;;;;;;;;;;5035638;28;20492;-59
2023/07/14 10:26:22;;;;;;;3.15;1.67;;;;;;;;;;5035141;28;20033;-59
2023/07/14 10:28:47;;;;;;;2.30;1.80;;;;;;;;;;5035288;28;20088;-59
2023/07/14 10:31:33;;;;;;;2.03;1.83;;;;;;;;;;5035069;28;20037;-59
2023/07/14 10:34:17;;;;;;;1.60;1.50;;;;;;;;;;5035100;28;20476;-59
2023/07/14 10:36:43;;;;;;;1.70;1.40;;;;;;;;;;5035698;28;20057;-59
2023/07/14 10:39:14;;;;;;;2.75;1.40;;;;;;;;;;5035349;28;20030;-59
2023/07/14 10:41:41;;;;;;;2.17;1.60;;;;;;;;;;5035303;28;20037;-59
2023/07/14 10:44:19;;;;;;;2.83;1.67;;;;;;;;;;5035253;28;20025;-59
2023/07/14 10:46:48;;;;;;;2.20;1.70;;;;;;;;;;5034835;28;20033;-59
2023/07/14 10:49:20;;;;;;;2.22;1.52;;;;;;;;;;5033634;28;20456;-59
2023/07/14 10:51:48;;;;;;;2.97;1.67;;;;;;;;;;5033690;28;20037;-59
2023/07/14 10:54:16;;;;;;;1.63;1.30;;;;;;;;;;5035087;28;20032;-59
2023/07/14 10:56:51;;;;;;;1.77;1.50;;;;;;;;;;5035037;28;20499;-59
2023/07/14 10:59:23;;;;;;;2.95;1.67;;;;;;;;;;5034731;28;20045;-59
2023/07/14 11:01:53;;;;;;;2.22;1.40;;;;;;;;;;5034959;28;20091;-59
2023/07/14 11:04:18;;;;;;;;;;;;;;;;;;5035337;28;20461;-58
2023/07/14 11:06:48;;;;;;;1.47;1.33;;;;;;;;;;5034454;28;19920;-59
2023/07/14 11:09:14;;;;;;;2.08;1.50;;;;;;;;;;5035030;28;20029;-59
2023/07/14 11:12:03;;;;;;;1.45;1.40;;;;;;;;;;5033205;28;20563;-59
2023/07/14 11:14:55;;;;;;;3.75;1.42;;;;;;;;;;5028891;28;20117;-59
2023/07/14 11:17:47;;;;;;;2.40;1.88;;;;;;;;;;5034620;28;20068;-59
2023/07/14 11:20:27;;;;;;;3.08;1.85;;;;;;;;;;5018621;28;20061;-59
2023/07/14 11:22:53;;;;;;;;;;;;;;;;;;5033377;28;20439;-59
2023/07/14 11:25:24;;;;;;;1.73;1.63;;;;;;;;;;5034020;28;20451;-59
2023/07/14 11:27:57;;;;;;;1.45;1.38;;;;;;;;;;5034195;28;20037;-59
2023/07/14 11:30:35;;;;;;;5.10;1.80;;;;;;;;;;5034403;28;20460;-59
2023/07/14 11:33:06;;;;;;;1.67;1.58;;;;;;;;;;5034420;28;20032;-59
2023/07/14 11:35:31;;;;;;;2.47;2.03;;;;;;;;;;5034344;28;20121;-59
2023/07/14 11:38:15;;;;;;;3.70;1.85;;;;;;;;;;5034292;28;20120;-59
2023/07/14 11:40:43;;;;;;;2.25;1.55;;;;;;;;;;5034266;28;20037;-59
2023/07/14 11:43:12;;;;;;;2.78;1.83;;;;;;;;;;5033875;28;20056;-59
2023/07/14 11:45:37;;;;;;;3.38;2.03;;;;;;;;;;5033783;28;20408;-59
2023/07/14 11:48:03;;;;;;;2.50;2.08;;;;;;;;;;5033865;28;20025;-59
2023/07/14 11:50:38;;;;;;;3.50;2.50;;;;;;;;;;5034114;28;20033;-59
2023/07/14 11:53:06;;;;;;;4.20;2.40;;;;;;;;;;5034023;28;20029;-59
2023/07/14 11:55:32;;;;;;;3.05;2.13;;;;;;;;;;5034014;28;20025;-59
2023/07/14 11:58:05;;;;;;;3.28;1.88;;;;;;;;;;5032575;28;20025;-59
2023/07/14 12:00:41;;;;;;;2.97;1.73;;;;;;;;;;5033708;28;20095;-59
2023/07/14 12:03:24;;;;;;;3.83;1.83;;;;;;;;;;5033932;28;20026;-59
2023/07/14 12:06:09;;;;;;;1.90;1.70;;;;;;;;;;5033856;28;20033;-59
2023/07/14 12:08:39;;;;;;;3.55;1.83;;;;;;;;;;5033426;28;20473;-59
2023/07/14 12:11:21;;;;;;;1.83;1.65;;;;;;;;;;5033899;28;20376;-59
2023/07/14 12:13:49;;;;;;;2.95;2.15;;;;;;;;;;5033538;28;20061;-59
2023/07/14 12:16:20;;;;;;;3.08;1.90;;;;;;;;;;5033864;28;20461;-59
2023/07/14 12:19:15;;;;;;;4.05;2.33;;;;;;;;;;5033477;28;20029;-59
2023/07/14 12:21:44;;;;;;;2.63;2.03;;;;;;;;;;5024364;28;20489;-59
2023/07/14 12:24:12;;;;;;;37.63;6.93;;;;;;;;;;5033420;28;20103;-59
2023/07/14 12:26:41;;;;;;;6.10;3.03;;;;;;;;;;5015812;28;20076;-59
2023/07/14 12:29:14;;;;;;;10.73;3.25;;;;;;;;;;5033726;28;20103;-59
2023/07/14 12:31:40;;;;;;;5.60;2.50;;;;;;;;;;5033697;28;20484;-59
2023/07/14 12:34:12;;;;;;;3.13;2.22;;;;;;;;;;5033364;28;20388;-59
2023/07/14 12:36:40;;;;;;;3.45;2.20;;;;;;;;;;5033349;28;20116;-59
2023/07/14 12:39:08;;;;;;;4.38;3.00;;;;;;;;;;5033614;28;20100;-59
2023/07/14 12:41:35;;;;;;;4.03;2.50;;;;;;;;;;5033159;28;20092;-59
2023/07/14 12:44:00;;;;;;;3.85;2.30;;;;;;;;;;5033363;28;20472;-59
2023/07/14 12:46:26;;;;;;;2.67;2.15;;;;;;;;;;5031962;28;20030;-59
2023/07/14 12:49:01;;;;;;;2.97;1.90;;;;;;;;;;5033461;28;20401;-59
2023/07/14 12:51:27;;;;;;;3.38;1.92;;;;;;;;;;5033206;28;20053;-59
2023/07/14 12:54:04;;;;;;;4.00;2.00;;;;;;;;;;5033206;28;20029;-58
2023/07/14 12:56:30;;;;;;;3.63;2.00;;;;;;;;;;5037009;28;20108;-59
2023/07/14 12:58:57;;;;;;;4.15;1.92;;;;;;;;;;5037147;28;20042;-59
2023/07/14 13:01:23;;;;;;;3.33;1.60;;;;;;;;;;5036490;28;20087;-59
2023/07/14 13:03:49;;;;;;;3.42;1.95;;;;;;;;;;5035873;28;20026;-62
2023/07/14 13:06:15;;;;;;;3.45;1.88;;;;;;;;;;5034897;28;20028;-59
2023/07/14 13:08:44;;;;;;;1.95;1.70;;;;;;;;;;5034642;28;20144;-63
2023/07/14 13:11:14;;;;;;;3.78;1.60;;;;;;;;;;5035396;28;20033;-63
2023/07/14 13:13:41;;;;;;;2.35;1.63;;;;;;;;;;5036028;28;20025;-63
2023/07/14 13:16:09;;;;;;;1.63;1.52;;;;;;;;;;5035117;28;20061;-63
2023/07/14 13:18:36;;;;;;;6.70;2.13;;;;;;;;;;5036172;28;20025;-63
2023/07/14 13:21:04;;;;;;;2.03;1.67;;;;;;;;;;5035723;28;20037;-63
2023/07/14 13:23:30;;;;;;;2.40;1.90;;;;;;;;;;5034492;28;20091;-63
2023/07/14 13:25:59;;;;;;;2.08;1.60;;;;;;;;;;5034674;28;20548;-59
2023/07/14 13:28:37;;;;;;;2.97;1.50;;;;;;;;;;5035534;28;20025;-59
2023/07/14 13:31:09;;;;;;;3.65;1.60;;;;;;;;;;5035505;28;20040;-59
2023/07/14 13:33:34;;;;;;;2.38;1.88;;;;;;;;;;5035034;28;20485;-59
2023/07/14 13:36:07;;;;;;;5.18;2.03;;;;;;;;;;5034469;28;20029;-59
2023/07/14 13:38:33;;;;;;;2.08;1.83;;;;;;;;;;5034538;28;20028;-59
2023/07/14 13:41:18;;;;;;;3.53;1.60;;;;;;;;;;5035103;28;20116;-59
2023/07/14 13:43:48;;;;;;;1.85;1.45;;;;;;;;;;5034388;28;20028;-59
2023/07/14 13:46:26;;;;;;;2.40;1.88;;;;;;;;;;5034305;28;20033;-59
2023/07/14 13:48:52;;;;;;;3.38;2.08;;;;;;;;;;5034341;28;20112;-59
2023/07/14 13:51:20;;;;;;;1.98;1.77;;;;;;;;;;5035171;28;20067;-59
2023/07/14 13:53:46;;;;;;;3.22;1.95;;;;;;;;;;5034830;28;20038;-59
2023/07/14 13:56:16;;;;;;;5.38;2.08;;;;;;;;;;5034577;28;20044;-59
2023/07/14 13:58:42;;;;;;;2.28;2.15;;;;;;;;;;5034947;28;20029;-60
2023/07/14 14:01:14;;;;;;;3.13;2.17;;;;;;;;;;5033582;28;20369;-59
2023/07/14 14:03:40;;;;;;;3.85;2.22;;;;;;;;;;5034598;28;20095;-59
2023/07/14 14:06:08;;;;;;;2.28;2.08;;;;;;;;;;5033919;28;20117;-59
2023/07/14 14:08:34;;;;;;;2.75;2.20;;;;;;;;;;5034513;28;20025;-59
2023/07/14 14:10:59;;;;;;;2.90;1.92;;;;;;;;;;5035182;28;20075;-59
2023/07/14 14:13:24;;;;;;;2.05;1.92;;;;;;;;;;5034941;28;20030;-59
2023/07/14 14:15:50;;;;;;;2.15;1.92;;;;;;;;;;5035003;28;20163;-59
2023/07/14 14:18:20;;;;;;;6.57;2.05;;;;;;;;;;5035131;28;20038;-59
2023/07/14 14:20:45;;;;;;;3.05;1.98;;;;;;;;;;5035129;28;20017;-59
2023/07/14 14:23:14;;;;;;;3.22;2.10;;;;;;;;;;5035073;28;20581;-59
2023/07/14 14:25:40;;;;;;;1.80;1.70;;;;;;;;;;5034694;28;20550;-59
2023/07/14 14:28:06;;;;;;;2.55;1.92;;;;;;;;;;5017052;28;20105;-59
2023/07/14 14:30:37;;;;;;;2.67;2.10;;;;;;;;;;5034696;28;20473;-59
2023/07/14 14:33:04;;;;;;;6.25;2.70;;;;;;;;;;5034563;28;20056;-57
2023/07/14 14:35:31;;;;;;;3.95;1.90;;;;;;;;;;5034435;28;20369;-60
2023/07/14 14:37:58;;;;;;;2.65;2.10;;;;;;;;;;5032378;28;20033;-58
2023/07/14 14:40:24;;;;;;;2.05;1.92;;;;;;;;;;5013195;28;20037;-62
2023/07/14 14:42:50;;;;;;;2.63;2.25;;;;;;;;;;5033765;28;20034;-58
2023/07/14 14:45:22;;;;;;;4.25;2.38;;;;;;;;;;5016028;28;20087;-60